Time;durP1;ratioP1;P1;durP2;ratioP2;P2;SDS_P1;SDS_P2;PMS_P1;PMS_P2;Temp;Humidity;BMP_temperature;BMP_pressure;BME280_temperature;BME280_humidity;BME280_pressure;Samples;Min_cycle;Max_cycle;Signal;HPM_P1;HPM_P2
2021/07/06 00:01:10;;;;;;;12.40;11.30;;;;;;;;;;5013578;28;20076;-70
2021/07/06 00:03:36;;;;;;;13.35;12.05;;;;;;;;;;5013367;28;20030;-66
2021/07/06 00:06:03;;;;;;;12.25;11.05;;;;;;;;;;5013702;28;20060;-67
2021/07/06 00:08:29;;;;;;;12.57;11.38;;;;;;;;;;5013752;28;20060;-67
2021/07/06 00:10:55;;;;;;;12.43;11.13;;;;;;;;;;5013507;28;20084;-69
2021/07/06 00:13:21;;;;;;;12.15;10.90;;;;;;;;;;5013282;28;20033;-68
2021/07/06 00:15:48;;;;;;;11.88;10.77;;;;;;;;;;5013232;28;20014;-66
2021/07/06 00:18:14;;;;;;;14.30;11.27;;;;;;;;;;5013257;28;20018;-67
2021/07/06 00:20:40;;;;;;;30.60;27.30;;;;;;;;;;5009280;28;20037;-67
2021/07/06 00:23:07;;;;;;;14.20;12.70;;;;;;;;;;5013010;28;20044;-65
2021/07/06 00:25:33;;;;;;;19.48;17.08;;;;;;;;;;5012982;28;20034;-66
2021/07/06 00:28:00;;;;;;;16.17;14.57;;;;;;;;;;5012966;28;20022;-66
2021/07/06 00:30:26;;;;;;;14.88;12.90;;;;;;;;;;5013622;28;20026;-67
2021/07/06 00:32:53;;;;;;;15.05;11.95;;;;;;;;;;5013437;28;20034;-66
2021/07/06 00:35:19;;;;;;;16.83;14.07;;;;;;;;;;5013192;28;20036;-65
2021/07/06 00:37:46;;;;;;;15.85;14.27;;;;;;;;;;5013347;28;20080;-67
2021/07/06 00:40:12;;;;;;;13.93;12.50;;;;;;;;;;5013523;28;20480;-67
2021/07/06 00:42:46;;;;;;;13.38;12.15;;;;;;;;;;5013233;28;20026;-68
2021/07/06 00:45:13;;;;;;;14.02;12.57;;;;;;;;;;5013220;28;20030;-67
2021/07/06 00:47:40;;;;;;;13.27;11.98;;;;;;;;;;5013267;28;20076;-67
2021/07/06 00:50:08;;;;;;;15.07;11.85;;;;;;;;;;5013029;28;20112;-69
2021/07/06 00:52:34;;;;;;;15.18;11.98;;;;;;;;;;5013145;28;20037;-67
2021/07/06 00:55:00;;;;;;;13.30;12.00;;;;;;;;;;5013069;28;20105;-66
2021/07/06 00:57:29;;;;;;;13.13;11.82;;;;;;;;;;5011826;28;20061;-67
2021/07/06 00:59:57;;;;;;;12.50;11.20;;;;;;;;;;5012969;28;20065;-67
2021/07/06 01:02:23;;;;;;;13.27;11.98;;;;;;;;;;5013120;28;20028;-67
2021/07/06 01:04:49;;;;;;;12.55;11.32;;;;;;;;;;5013098;28;20018;-68
2021/07/06 01:07:15;;;;;;;12.57;11.38;;;;;;;;;;5012671;28;20154;-66
2021/07/06 01:09:41;;;;;;;14.57;12.52;;;;;;;;;;5012979;28;20049;-68
2021/07/06 01:12:08;;;;;;;14.18;12.77;;;;;;;;;;5012698;28;20107;-66
2021/07/06 01:14:33;;;;;;;13.48;12.27;;;614.80;1971.20;;;;;;5013069;28;20530;-70
2021/07/06 01:16:59;;;;;;;13.23;11.80;;;614.70;1996.80;;;;;;5012745;28;20105;-68
2021/07/06 01:19:27;;;;;;;12.98;11.77;;;614.50;1996.80;;;;;;5012242;28;20411;-68
2021/07/06 01:21:52;;;;;;;13.38;12.07;;;614.40;2022.40;;;;;;5013003;28;20028;-67
2021/07/06 01:24:18;;;;;;;13.93;12.52;;;614.60;1996.80;;;;;;5012573;28;20018;-67
2021/07/06 01:26:44;;;;;;;13.88;12.68;;;614.60;1996.80;;;;;;5012749;28;20025;-67
2021/07/06 01:29:10;;;;;;;13.20;11.98;;;614.50;1996.80;;;;;;5012560;28;20476;-68
2021/07/06 01:31:36;;;;;;;12.63;11.40;;;;;;;;;;5012640;28;20049;-65
2021/07/06 01:34:02;;;;;;;13.18;11.77;;;;;;;;;;5012687;28;20033;-66
2021/07/06 01:36:28;;;;;;;20.15;13.60;;;;;;;;;;5012385;28;20026;-66
2021/07/06 01:38:54;;;;;;;13.43;12.02;;;;;;;;;;5012565;28;20503;-66
2021/07/06 01:41:20;;;;;;;12.95;11.65;;;;;;;;;;5011492;28;20420;-65
2021/07/06 01:43:46;;;;;;;13.57;12.25;;;;;;;;;;5012490;28;20058;-67
2021/07/06 01:46:12;;;;;;;14.35;13.00;;;;;;;;;;5012643;28;20026;-66
2021/07/06 01:48:38;;;;;;;13.23;12.00;;;;;;;;;;5012378;28;20022;-66
2021/07/06 01:51:04;;;;;;;12.82;11.38;;;;;;;;;;5012421;28;20037;-66
2021/07/06 01:53:30;;;;;;;14.15;12.82;;;;;;;;;;5012100;28;20069;-66
2021/07/06 01:55:56;;;;;;;15.98;12.95;;;;;;;;;;5012534;28;20017;-66
2021/07/06 01:58:23;;;;;;;13.32;12.02;;;;;;;;;;5012204;28;20029;-66
2021/07/06 02:00:52;;;;;;;14.27;12.95;;;;;;;;;;5012526;28;20100;-65
2021/07/06 02:03:18;;;;;;;14.18;12.40;;;;;;;;;;5012290;28;20112;-66
2021/07/06 02:05:48;;;;;;;14.23;12.68;;;;;;;;;;5012482;28;20388;-66
2021/07/06 02:08:15;;;;;;;12.77;11.57;;;;;;;;;;5012502;28;20476;-66
2021/07/06 02:10:42;;;;;;;14.05;12.68;;;;;;;;;;5012333;28;20508;-66
2021/07/06 02:13:10;;;;;;;13.38;12.00;;;;;;;;;;5012104;28;20045;-66
2021/07/06 02:15:36;;;;;;;13.95;12.55;;;;;;;;;;5012182;28;20026;-66
2021/07/06 02:18:03;;;;;;;14.45;12.95;;;;;;;;;;5012256;28;20092;-65
2021/07/06 02:20:29;;;;;;;13.57;12.27;;;;;;;;;;5011926;28;20042;-66
2021/07/06 02:22:55;;;;;;;14.07;12.77;;;;;;;;;;5012245;28;20026;-66
2021/07/06 02:25:22;;;;;;;13.45;12.15;;;;;;;;;;5012241;28;20022;-66
2021/07/06 02:27:48;;;;;;;14.00;12.70;;;;;;;;;;5011690;28;20028;-66
2021/07/06 02:30:18;;;;;;;14.35;12.73;;;;;;;;;;5013134;28;20021;-66
2021/07/06 02:32:45;;;;;;;15.17;13.23;;;;;;;;;;5015565;28;20507;-68
2021/07/06 02:35:11;;;;;;;13.38;12.05;;;;;;;;;;5015707;28;20262;-69
2021/07/06 02:37:38;;;;;;;15.80;14.02;;;;;;;;;;5014370;28;20064;-68
2021/07/06 02:40:04;;;;;;;13.75;12.45;;;;;;;;;;5015402;28;20444;-69
2021/07/06 02:42:31;;;;;;;16.65;12.85;;;;;;;;;;5015490;28;20025;-68
2021/07/06 02:44:57;;;;;;;17.95;12.85;;;;;;;;;;5015415;28;20105;-68
2021/07/06 02:47:23;;;;;;;14.27;12.77;;;;;;;;;;5015411;28;20021;-68
2021/07/06 02:49:49;;;;;;;14.15;12.75;;;;;;;;;;5013951;28;20040;-68
2021/07/06 02:52:15;;;;;;;14.68;12.25;;;;;;;;;;5015480;28;20026;-68
2021/07/06 02:54:41;;;;;;;14.13;12.73;;;;;;;;;;5015337;28;20064;-68
2021/07/06 02:57:10;;;;;;;14.18;12.77;;;;;;;;;;5014990;28;20049;-68
2021/07/06 02:59:36;;;;;;;13.27;11.93;;;;;;;;;;5015279;28;20032;-68
2021/07/06 03:02:02;;;;;;;14.63;13.23;;;;;;;;;;5015135;28;20022;-67
2021/07/06 03:04:28;;;;;;;20.42;16.73;;;;;;;;;;5015259;28;20018;-67
2021/07/06 03:06:54;;;;;;;21.70;19.40;;;;;;;;;;5014910;28;20377;-67
2021/07/06 03:09:20;;;;;;;19.92;15.80;;;;;;;;;;5014912;28;20026;-69
2021/07/06 03:11:47;;;;;;;15.32;13.75;;;;;;;;;;5015067;28;20030;-67
2021/07/06 03:14:13;;;;;;;16.95;13.05;;;;;;;;;;5014961;28;20047;-66
2021/07/06 03:16:39;;;;;;;15.45;13.80;;;;;;;;;;5014992;28;20100;-67
2021/07/06 03:19:05;;;;;;;14.60;13.15;;;;;;;;;;5014685;28;20034;-67
2021/07/06 03:21:31;;;;;;;15.18;13.65;;;;;;;;;;5014928;28;20123;-67
2021/07/06 03:23:57;;;;;;;14.38;13.02;;;;;;;;;;5014644;28;20030;-67
2021/07/06 03:26:23;;;;;;;14.15;12.75;;;;;;;;;;5013796;28;20534;-67
2021/07/06 03:28:49;;;;;;;14.63;13.15;;;;;;;;;;5014713;28;20022;-67
2021/07/06 03:31:15;;;;;;;13.95;12.27;;;;;;;;;;5013570;28;20088;-67
2021/07/06 03:33:41;;;;;;;14.63;11.70;;;;;;;;;;5014557;28;20057;-68
2021/07/06 03:36:07;;;;;;;14.38;12.30;;;;;;;;;;5014273;28;20022;-65
2021/07/06 03:38:33;;;;;;;16.45;12.75;;;;;;;;;;5014510;28;20030;-66
2021/07/06 03:40:59;;;;;;;14.68;13.02;;;;;;;;;;5014037;28;20028;-66
2021/07/06 03:43:25;;;;;;;14.48;13.00;;;;;;;;;;5014222;28;20057;-65
2021/07/06 03:45:51;;;;;;;15.55;13.10;;;;;;;;;;5014396;28;20041;-66
2021/07/06 03:48:18;;;;;;;14.40;12.63;;;;;;;;;;5014125;28;20034;-66
2021/07/06 03:50:44;;;;;;;16.85;12.68;;;;;;;;;;5014244;28;20072;-65
2021/07/06 03:53:10;;;;;;;13.70;12.30;;;;;;;;;;5013979;28;20133;-66
2021/07/06 03:55:36;;;;;;;14.15;12.70;;;;;;;;;;5012945;28;20033;-66
2021/07/06 03:58:02;;;;;;;15.75;13.00;;;;;;;;;;5014064;28;20026;-66
2021/07/06 04:00:30;;;;;;;20.92;13.13;;;;;;;;;;5014031;28;20092;-66
2021/07/06 04:02:56;;;;;;;20.23;13.40;;;;;;;;;;5014076;28;20018;-66
2021/07/06 04:05:23;;;;;;;17.10;13.43;;;;;;;;;;5013693;28;20022;-66
2021/07/06 04:07:49;;;;;;;20.50;12.82;;;;;;;;;;4996723;28;20056;-66
2021/07/06 04:10:17;;;;;;;15.15;11.98;;;;;;;;;;5013685;28;20465;-66
2021/07/06 04:12:43;;;;;;;15.07;13.48;;;;;;;;;;5013790;28;20038;-66
2021/07/06 04:15:10;;;;;;;14.40;11.98;;;;;;;;;;5013801;28;20483;-66
2021/07/06 04:17:37;;;;;;;12.88;11.57;;;;;;;;;;5013837;28;20040;-66
2021/07/06 04:20:06;;;;;;;12.93;11.52;;;;;;;;;;5013597;28;20085;-66
2021/07/06 04:22:32;;;;;;;13.85;12.13;;;;;;;;;;5013621;28;20030;-65
2021/07/06 04:24:58;;;;;;;16.10;13.02;;;;;;;;;;5013565;28;20030;-65
2021/07/06 04:27:24;;;;;;;13.98;12.57;;;;;;;;;;5013282;28;20029;-66
2021/07/06 04:29:51;;;;;;;14.43;12.88;;;;;;;;;;5013495;28;20116;-66
2021/07/06 04:32:17;;;;;;;14.05;12.65;;;;;;;;;;5013481;28;20033;-66
2021/07/06 04:34:44;;;;;;;15.65;12.30;;;;;;;;;;5013316;28;20040;-66
2021/07/06 04:37:11;;;;;;;13.02;11.55;;;;;;;;;;5013249;28;20026;-65
2021/07/06 04:39:37;;;;;;;13.32;11.93;;;;;;;;;;5013265;28;20373;-66
2021/07/06 04:42:04;;;;;;;14.35;12.32;;;;;;;;;;5013366;28;20057;-67
2021/07/06 04:44:30;;;;;;;14.50;13.00;;;;;;;;;;5013086;28;20419;-66
2021/07/06 04:46:56;;;;;;;15.63;13.25;;;;;;;;;;5013200;28;20416;-66
2021/07/06 04:49:22;;;;;;;19.38;16.30;;;;;;;;;;5013112;28;20057;-65
2021/07/06 04:51:48;;;;;;;19.20;16.77;;;;;;;;;;5013134;28;20061;-65
2021/07/06 04:54:14;;;;;;;15.35;12.13;;;;;;;;;;5012198;28;20030;-67
2021/07/06 04:56:40;;;;;;;13.88;12.48;;;;;;;;;;5012982;28;20018;-67
2021/07/06 04:59:06;;;;;;;15.65;11.80;;;;;;;;;;5012897;28;20037;-67
2021/07/06 05:01:33;;;;;;;13.93;11.93;;;;;;;;;;5013174;28;20053;-68
2021/07/06 05:03:59;;;;;;;15.75;11.93;;;;;;;;;;5012936;28;20026;-68
2021/07/06 05:06:25;;;;;;;12.52;11.15;;;;;;;;;;5012832;28;20026;-65
2021/07/06 05:08:51;;;;;;;14.15;11.10;;;;;;;;;;5012772;28;20480;-67
2021/07/06 05:11:18;;;;;;;13.77;11.10;;;;;;;;;;5012736;28;20040;-67
2021/07/06 05:13:44;;;;;;;13.75;11.27;;;;;;;;;;5012648;28;20091;-67
2021/07/06 05:16:10;;;;;;;18.63;12.82;;;;;;;;;;5012948;28;20026;-67
2021/07/06 05:18:36;;;;;;;12.65;11.35;;;;;;;;;;5012699;28;20021;-67
2021/07/06 05:21:02;;;;;;;12.95;11.73;;;;;;;;;;5012454;28;20053;-65
2021/07/06 05:23:28;;;;;;;13.48;10.85;;;;;;;;;;5012798;28;20057;-64
2021/07/06 05:25:54;;;;;;;12.05;10.80;;;;;;;;;;5012479;28;20392;-64
2021/07/06 05:28:20;;;;;;;12.98;11.35;;;;;;;;;;5012574;28;20104;-64
2021/07/06 05:30:46;;;;;;;15.23;11.63;;;640.50;1792.00;;;;;;5012898;28;20022;-65
2021/07/06 05:33:12;;;;;;;12.68;11.38;;;640.50;1792.00;;;;;;5012611;28;20045;-64
2021/07/06 05:35:38;;;;;;;13.23;11.80;;;640.50;1817.60;;;;;;5012491;28;20032;-68
2021/07/06 05:38:04;;;;;;;12.27;11.07;;;;;;;;;;5012541;28;20033;-64
2021/07/06 05:40:31;;;;;;;12.93;11.15;;;;;;;;;;5012468;28;20014;-66
2021/07/06 05:42:57;;;;;;;13.68;11.52;;;;;;;;;;5012175;28;20021;-65
2021/07/06 05:45:24;;;;;;;12.98;10.80;;;;;;;;;;5012500;28;20066;-64
2021/07/06 05:47:50;;;;;;;12.48;11.05;;;;;;;;;;5012420;28;20033;-64
2021/07/06 05:50:16;;;;;;;14.18;11.68;;;;;;;;;;5012457;28;20033;-64
2021/07/06 05:52:44;;;;;;;13.20;11.25;;;;;;;;;;5012399;28;20038;-65
2021/07/06 05:55:10;;;;;;;12.80;11.60;;;;;;;;;;5012096;28;20026;-65
2021/07/06 05:57:39;;;;;;;13.00;11.32;;;;;;;;;;5012577;28;20034;-65
2021/07/06 06:00:07;;;;;;;14.23;11.50;;;;;;;;;;5012289;28;20022;-63
2021/07/06 06:02:33;;;;;;;14.05;11.43;;;;;;;;;;5012322;28;20545;-67
2021/07/06 06:04:59;;;;;;;17.15;12.18;;;;;;;;;;5014480;28;20052;-68
2021/07/06 06:07:25;;;;;;;14.15;11.65;;;;;;;;;;5016146;28;20029;-67
2021/07/06 06:09:52;;;;;;;15.43;11.15;;;;;;;;;;5015953;28;20100;-67
2021/07/06 06:12:18;;;;;;;15.23;11.45;;;;;;;;;;5015822;28;20013;-66
2021/07/06 06:14:44;;;;;;;12.95;11.25;;;;;;;;;;5015855;28;20041;-67
2021/07/06 06:17:10;;;;;;;20.60;15.45;;;;;;;;;;5015842;28;20026;-66
2021/07/06 06:19:36;;;;;;;12.55;11.25;;;;;;;;;;5015742;28;20140;-68
2021/07/06 06:22:02;;;;;;;13.25;10.90;;;;;;;;;;5015733;28;20061;-66
2021/07/06 06:24:29;;;;;;;12.63;11.40;;;;;;;;;;5015651;28;20072;-67
2021/07/06 06:26:55;;;;;;;12.80;11.50;;;;;;;;;;5015421;28;20018;-66
2021/07/06 06:29:21;;;;;;;13.48;11.45;;;;;;;;;;5015389;28;20030;-66
2021/07/06 06:31:47;;;;;;;11.82;10.02;;;;;;;;;;5015805;28;20026;-66
2021/07/06 06:34:13;;;;;;;15.60;11.93;;;;;;;;;;5015698;28;20475;-68
2021/07/06 06:36:39;;;;;;;14.98;11.88;;;;;;;;;;5015409;28;20022;-68
2021/07/06 06:39:06;;;;;;;13.20;11.73;;;;;;;;;;5015602;28;20029;-69
2021/07/06 06:41:32;;;;;;;13.50;12.18;;;;;;;;;;5015469;28;20025;-68
2021/07/06 06:43:58;;;;;;;12.85;11.45;;;;;;;;;;5015401;28;20511;-68
2021/07/06 06:46:26;;;;;;;12.90;11.27;;;;;;;;;;5015412;28;20064;-68
2021/07/06 06:48:52;;;;;;;11.93;10.73;;;;;;;;;;5015313;28;20028;-68
2021/07/06 06:51:18;;;;;;;13.52;11.05;;;;;;;;;;5015314;28;20108;-67
2021/07/06 06:53:43;;;;;;;12.13;10.73;;;691.40;1561.60;;;;;;5015264;28;20061;-68
2021/07/06 06:56:09;;;;;;;13.52;10.50;;;691.40;1561.60;;;;;;5015212;28;20115;-66
2021/07/06 06:58:35;;;;;;;12.05;10.43;;;691.20;1587.20;;;;;;5015113;28;20018;-66
2021/07/06 07:01:01;;;;;;;14.75;11.18;;;;;;;;;;5015089;28;20392;-65
2021/07/06 07:03:27;;;;;;;12.18;10.93;;;;;;;;;;5015145;28;20037;-67
2021/07/06 07:05:53;;;;;;;14.15;10.68;;;;;;;;;;5015102;28;20104;-67
2021/07/06 07:08:19;;;;;;;11.98;10.45;;;;;;;;;;4997481;28;20018;-67
2021/07/06 07:10:47;;;;;;;13.15;11.60;;;;;;;;;;5013665;28;20392;-67
2021/07/06 07:13:13;;;;;;;14.85;10.93;;;;;;;;;;5014903;28;20538;-67
2021/07/06 07:15:40;;;;;;;14.88;11.73;;;;;;;;;;5013931;28;20030;-67
2021/07/06 07:18:06;;;;;;;15.25;11.48;;;;;;;;;;5015016;28;20081;-68
2021/07/06 07:20:32;;;;;;;14.73;11.07;;;;;;;;;;5014545;28;20085;-67
2021/07/06 07:22:58;;;;;;;13.75;10.98;;;692.10;1587.20;;;;;;5014918;28;20061;-67
2021/07/06 07:25:24;;;;;;;13.43;11.05;;;691.90;1536.00;;;;;;5014510;28;20484;-69
2021/07/06 07:27:50;;;;;;;21.25;11.38;;;691.90;1536.00;;;;;;5014536;28;20028;-69
2021/07/06 07:30:18;;;;;;;12.13;10.90;;;691.90;1536.00;;;;;;5014458;28;20040;-68
2021/07/06 07:32:44;;;;;;;13.98;12.55;;;716.80;1510.40;;;;;;5014352;28;20028;-70
2021/07/06 07:35:11;;;;;;;14.30;12.77;;;;;;;;;;4996539;28;20392;-67
2021/07/06 07:37:37;;;;;;;15.57;13.05;;;;;;;;;;5014095;28;20045;-67
2021/07/06 07:40:04;;;;;;;13.23;12.02;;;;;;;;;;5014122;28;20022;-68
2021/07/06 07:42:31;;;;;;;13.20;11.38;;;;;;;;;;5014257;28;20132;-67
2021/07/06 07:44:57;;;;;;;13.60;11.35;;;;;;;;;;5014093;28;20030;-68
2021/07/06 07:47:23;;;;;;;12.70;11.38;;;;;;;;;;5014111;28;20021;-66
2021/07/06 07:49:49;;;;;;;12.80;11.48;;;;;;;;;;5013846;28;20113;-66
2021/07/06 07:52:15;;;;;;;13.75;12.23;;;;;;;;;;5014048;28;20036;-67
2021/07/06 07:54:41;;;;;;;13.80;11.98;;;;;;;;;;5014057;28;20033;-66
2021/07/06 07:57:11;;;;;;;15.18;12.30;;;;;;;;;;5013431;28;20022;-68
2021/07/06 07:59:40;;;;;;;13.17;11.77;;;;;;;;;;5013668;28;20018;-67
2021/07/06 08:02:06;;;;;;;14.10;12.70;;;;;;;;;;5013634;28;20030;-67
2021/07/06 08:04:33;;;;;;;14.02;11.98;;;;;;;;;;5013905;28;20025;-67
2021/07/06 08:07:00;;;;;;;14.68;12.35;;;;;;;;;;5012982;28;20022;-70
2021/07/06 08:09:26;;;;;;;11.95;10.77;;;;;;;;;;5013365;28;20376;-67
2021/07/06 08:11:52;;;;;;;13.05;11.38;;;;;;;;;;5013180;28;20511;-67
2021/07/06 08:14:18;;;;;;;12.65;11.13;;;;;;;;;;5012991;28;20100;-68
2021/07/06 08:16:44;;;;;;;19.10;14.27;;;;;;;;;;5013165;28;20018;-65
2021/07/06 08:19:10;;;;;;;13.55;11.25;;;;;;;;;;5012709;28;20026;-68
2021/07/06 08:21:36;;;;;;;71.22;62.78;;;;;;;;;;5013400;28;20026;-67
2021/07/06 08:24:03;;;;;;;103.32;88.35;;;;;;;;;;5013080;28;20087;-68
2021/07/06 08:26:29;;;;;;;101.40;87.53;;;;;;;;;;5012929;28;20046;-67
2021/07/06 08:28:55;;;;;;;29.27;26.33;;;;;;;;;;5010033;28;20022;-66
2021/07/06 08:31:21;;;;;;;20.75;18.48;;;;;;;;;;5012861;28;20022;-65
2021/07/06 08:33:47;;;;;;;77.45;67.43;;;;;;;;;;5012785;28;20029;-67
2021/07/06 08:36:13;;;;;;;59.20;52.10;;;;;;;;;;4995181;28;20029;-66
2021/07/06 08:38:40;;;;;;;48.08;42.97;;;;;;;;;;5012891;28;20061;-64
2021/07/06 08:41:07;;;;;;;49.60;39.38;;;;;;;;;;5013181;28;20260;-70
2021/07/06 08:43:33;;;;;;;40.03;34.28;;;;;;;;;;5012469;28;20487;-68
2021/07/06 08:46:03;;;;;;;43.53;27.42;;;;;;;;;;5013131;28;20029;-67
2021/07/06 08:48:31;;;;;;;21.35;17.17;;;;;;;;;;5013141;28;20514;-67
2021/07/06 08:50:59;;;;;;;24.67;21.15;;;;;;;;;;5013085;28;20038;-67
2021/07/06 08:53:25;;;;;;;15.90;14.30;;;;;;;;;;5012830;28;20041;-69
2021/07/06 08:55:52;;;;;;;20.98;14.98;;;;;;;;;;5013109;28;20022;-65
2021/07/06 08:58:18;;;;;;;23.10;16.73;;;;;;;;;;5012812;28;20026;-67
2021/07/06 09:00:44;;;;;;;18.27;15.05;;;;;;;;;;5013186;28;20049;-67
2021/07/06 09:03:11;;;;;;;18.88;15.73;;;;;;;;;;5012680;28;20046;-69
2021/07/06 09:05:38;;;;;;;23.08;20.17;;;;;;;;;;4993364;28;20358;-65
2021/07/06 09:08:05;;;;;;;100.35;86.32;;;;;;;;;;5012750;28;20105;-68
2021/07/06 09:10:35;;;;;;;43.10;37.90;;;;;;;;;;5012430;28;20492;-66
2021/07/06 09:13:01;;;;;;;96.57;86.18;;;;;;;;;;5012031;28;20117;-65
2021/07/06 09:15:31;;;;;;;96.93;86.45;;;;;;;;;;5012202;28;20021;-66
2021/07/06 09:18:04;;;;;;;49.00;40.75;;;;;;;;;;5012232;28;20333;-66
2021/07/06 09:20:31;;;;;;;46.25;41.35;;;;;;;;;;5011827;28;20121;-65
2021/07/06 09:23:15;;;;;;;33.55;30.00;;;;;;;;;;5012180;28;20072;-65
2021/07/06 09:25:41;;;;;;;32.70;29.20;;;;;;;;;;5011803;28;20022;-65
2021/07/06 09:28:20;;;;;;;35.38;29.67;;;;;;;;;;5012168;28;20022;-66
2021/07/06 09:30:46;;;;;;;28.90;25.77;;;;;;;;;;5012273;28;20034;-67
2021/07/06 09:33:25;;;;;;;35.65;31.45;;;;;;;;;;5012278;28;20084;-66
2021/07/06 09:35:51;;;;;;;75.32;67.13;;;;;;;;;;5011972;28;20519;-66
2021/07/06 09:38:18;;;;;;;59.53;52.55;;;;;;;;;;5012143;28;20465;-69
2021/07/06 09:40:45;;;;;;;148.40;131.60;;;;;;;;;;5018451;28;20032;-68
2021/07/06 09:43:15;;;;;;;128.68;115.03;;;;;;;;;;5018646;28;20050;-66
2021/07/06 09:45:41;;;;;;;32.60;28.75;;;;;;;;;;5018820;28;20388;-67
2021/07/06 09:48:08;;;;;;;49.38;43.28;;;;;;;;;;5018223;28;20108;-65
2021/07/06 09:50:34;;;;;;;43.80;36.55;;;;;;;;;;5018342;28;20026;-67
2021/07/06 09:53:01;;;;;;;46.67;41.00;;;;;;;;;;5017984;28;20069;-68
2021/07/06 09:55:30;;;;;;;42.17;36.08;;;;;;;;;;5017745;28;20057;-66
2021/07/06 09:57:57;;;;;;;37.78;32.63;;;;;;;;;;5018129;28;20061;-67
2021/07/06 10:00:24;;;;;;;15.63;13.60;;;;;;;;;;5018360;28;20105;-67
2021/07/06 10:03:00;;;;;;;127.85;114.22;;;;;;;;;;5018483;28;20022;-66
2021/07/06 10:05:27;;;;;;;94.10;83.97;;;;;;;;;;5018741;28;20049;-65
2021/07/06 10:07:53;;;;;;;143.20;127.75;;;;;;;;;;5018117;28;20044;-67
2021/07/06 10:10:20;;;;;;;15.48;13.68;;;;;;;;;;5018284;28;20029;-66
2021/07/06 10:12:48;;;;;;;20.17;16.63;;;;;;;;;;5017816;28;20029;-66
2021/07/06 10:15:15;;;;;;;153.52;136.85;;;;;;;;;;5018014;28;20030;-66
2021/07/06 10:17:41;;;;;;;161.77;143.20;;;;;;;;;;5018274;28;20485;-67
2021/07/06 10:20:09;;;;;;;70.78;63.00;;;;;;;;;;5014964;28;20057;-67
2021/07/06 10:22:35;;;;;;;122.68;106.80;;;;;;;;;;5015193;28;20176;-67
2021/07/06 10:25:02;;;;;;;185.32;165.05;;;;;;;;;;5017726;28;20033;-68
2021/07/06 10:27:32;;;;;;;227.82;203.93;;;;;;;;;;5017512;28;20025;-67
2021/07/06 10:30:08;;;;;;;127.20;113.20;;;;;;;;;;5017588;28;20157;-70
2021/07/06 10:32:41;;;;;;;144.80;123.15;;;;;;;;;;5017457;28;20103;-70
2021/07/06 10:35:08;;;;;;;120.25;105.43;;;;;;;;;;5003993;28;20030;-67
2021/07/06 10:37:35;;;;;;;132.77;114.55;;;;;;;;;;5017411;28;20025;-69
2021/07/06 10:40:16;;;;;;;103.90;90.55;;;;;;;;;;5017402;28;20599;-67
2021/07/06 10:42:43;;;;;;;96.72;78.78;;;;;;;;;;5017990;28;20101;-68
2021/07/06 10:45:12;;;;;;;73.63;60.90;;;;;;;;;;5013194;28;20503;-67
2021/07/06 10:47:39;;;;;;;49.00;40.10;;;;;;;;;;5018200;28;20026;-68
2021/07/06 10:50:24;;;;;;;56.00;45.90;;;;;;;;;;5017431;28;20021;-68
2021/07/06 10:53:10;;;;;;;52.63;44.45;;;;;;;;;;5014993;28;20042;-68
2021/07/06 10:55:36;;;;;;;27.05;23.10;;;;;;;;;;5014899;28;20413;-68
2021/07/06 10:58:02;;;;;;;23.38;17.45;;;;;;;;;;5014914;28;20412;-69
2021/07/06 11:00:41;;;;;;;22.05;15.88;;;;;;;;;;5014875;28;20048;-68
2021/07/06 11:03:19;;;;;;;17.83;15.57;;;;;;;;;;5015240;28;20064;-68
2021/07/06 11:05:46;;;;;;;16.50;13.68;;;;;;;;;;5014864;28;20014;-68
2021/07/06 11:08:30;;;;;;;20.58;18.48;;;;;;;;;;5014992;28;20030;-69
2021/07/06 11:10:56;;;;;;;20.58;16.42;;;;;;;;;;5013894;28;20420;-69
2021/07/06 11:13:27;;;;;;;16.58;14.90;;;;;;;;;;5014710;28;20037;-69
2021/07/06 11:15:54;;;;;;;17.30;15.43;;;;;;;;;;5018472;28;20045;-68
2021/07/06 11:18:32;;;;;;;15.93;13.73;;;;;;;;;;5025826;28;20033;-68
2021/07/06 11:20:58;;;;;;;11.45;10.07;;;;;;;;;;5028680;28;20125;-70
2021/07/06 11:23:36;;;;;;;10.25;9.05;;;;;;;;;;5014426;28;20018;-70
2021/07/06 11:26:04;;;;;;;10.90;9.57;;;;;;;;;;5014402;28;20034;-68
2021/07/06 11:28:30;;;;;;;11.65;10.35;;;;;;;;;;5014331;28;20495;-68
2021/07/06 11:30:59;;;;;;;18.90;15.43;;;;;;;;;;5014954;28;20392;-69
2021/07/06 11:33:28;;;;;;;12.98;9.52;;;;;;;;;;5011148;28;20022;-67
2021/07/06 11:35:58;;;;;;;20.08;15.32;;;;;;;;;;5018537;28;20033;-67
2021/07/06 11:38:48;;;;;;;21.20;18.90;;;;;;;;;;5027345;28;20374;-66
2021/07/06 11:41:15;;;;;;;31.38;27.20;;;;;;;;;;4959038;28;20090;-68
2021/07/06 11:43:44;;;;;;;30.20;23.02;;;;;;;;;;4953787;29;20032;-69
2021/07/06 11:46:11;;;;;;;33.53;30.05;;;;;;;;;;4953744;29;20393;-67
2021/07/06 11:48:38;;;;;;;26.52;21.15;;;;;;;;;;4956576;28;20031;-68
2021/07/06 11:51:06;;;;;;;29.90;26.15;;;;;;;;;;4953544;28;20532;-69
2021/07/06 11:53:38;;;;;;;14.02;10.98;;;;;;;;;;4954265;28;20053;-70
2021/07/06 11:56:04;;;;;;;21.48;19.23;;;;;;;;;;4953435;28;20029;-68
2021/07/06 11:58:31;;;;;;;17.52;15.77;;;;;;;;;;4953085;28;20079;-67
2021/07/06 12:00:59;;;;;;;29.00;24.30;;;;;;;;;;4953304;28;20509;-69
2021/07/06 12:03:26;;;;;;;44.60;39.95;;;;;;;;;;4953402;28;20073;-68
2021/07/06 12:06:00;;;;;;;36.42;32.50;;;;;;;;;;4953261;28;20027;-69
2021/07/06 12:08:28;;;;;;;25.42;22.75;;;;;;;;;;4952974;28;20023;-69
2021/07/06 12:10:55;;;;;;;29.55;26.58;;;;;;;;;;4953354;28;20031;-68
2021/07/06 12:13:22;;;;;;;25.35;22.73;;;;;;;;;;4953098;28;20054;-69
2021/07/06 12:15:48;;;;;;;24.05;18.80;;;;;;;;;;4953097;28;20039;-69
2021/07/06 12:18:15;;;;;;;23.77;18.50;;;;;;;;;;4968557;28;20038;-67
2021/07/06 12:20:41;;;;;;;16.27;13.68;;;;;;;;;;5013164;28;20121;-67
2021/07/06 12:23:08;;;;;;;12.85;11.25;;;;;;;;;;5012949;28;20609;-65
2021/07/06 12:25:34;;;;;;;102.85;88.70;;;;;;;;;;5013300;28;20021;-66
2021/07/06 12:28:00;;;;;;;118.72;105.38;;;;;;;;;;5013197;28;20029;-66
2021/07/06 12:30:26;;;;;;;81.28;69.47;;;;;;;;;;5013326;28;20022;-67
2021/07/06 12:33:08;;;;;;;128.43;113.22;;;;;;;;;;5013130;28;20056;-66
2021/07/06 12:35:34;;;;;;;36.70;32.67;;;;;;;;;;5013403;28;20034;-67
2021/07/06 12:38:04;;;;;;;20.20;18.05;;;;;;;;;;5013010;28;20026;-67
2021/07/06 12:40:31;;;;;;;50.30;44.53;;;;;;;;;;5013371;28;20045;-67
2021/07/06 12:42:57;;;;;;;40.92;36.50;;;;;;;;;;5013236;28;20218;-67
2021/07/06 12:45:32;;;;;;;41.17;35.25;;;;;;;;;;5013180;28;20026;-67
2021/07/06 12:47:58;;;;;;;33.45;27.33;;;;;;;;;;5013163;28;20366;-67
2021/07/06 12:50:26;;;;;;;23.92;20.25;;;;;;;;;;5013348;28;20121;-67
2021/07/06 12:52:57;;;;;;;16.70;12.57;;;;;;;;;;4984293;28;20030;-67
2021/07/06 12:55:23;;;;;;;;;;;;;;;;;;4995749;28;20050;-67
2021/07/06 12:57:53;;;;;;;17.48;15.45;;;;;;;;;;5012826;28;20010;-67
2021/07/06 13:00:19;;;;;;;16.50;14.43;;;;;;;;;;5012840;28;20061;-68
2021/07/06 13:03:05;;;;;;;17.38;13.80;;;;;;;;;;5013278;28;20082;-67
2021/07/06 13:05:32;;;;;;;15.80;12.90;;;;;;;;;;4933080;29;20040;-67
2021/07/06 13:07:58;;;;;;;13.52;12.13;;;;;;;;;;4933064;29;20050;-67
2021/07/06 13:10:27;;;;;;;10.48;8.10;;;;;;;;;;4917069;29;20036;-67
2021/07/06 13:12:59;;;;;;;10.80;9.70;;;;;;;;;;4933113;29;20397;-68
2021/07/06 13:15:29;;;;;;;14.77;11.00;;;;;;;;;;4932190;29;20032;-67
2021/07/06 13:17:55;;;;;;;12.75;10.70;;;;;;;;;;4933147;29;20036;-67
2021/07/06 13:20:22;;;;;;;13.50;10.75;;;;;;;;;;4932713;29;20055;-67
2021/07/06 13:22:48;;;;;;;11.77;10.57;;;;;;;;;;4933119;29;20593;-67
2021/07/06 13:25:15;;;;;;;13.27;10.65;;;;;;;;;;4932938;29;20036;-68
2021/07/06 13:27:41;;;;;;;12.05;9.63;;;;;;;;;;4932614;29;20571;-67
2021/07/06 13:30:09;;;;;;;11.88;10.02;;;;;;;;;;4933327;29;20039;-67
2021/07/06 13:32:39;;;;;;;13.75;10.00;;;;;;;;;;4933185;29;20091;-66
2021/07/06 13:35:06;;;;;;;10.77;9.48;;;;;;;;;;4932787;29;20491;-67
2021/07/06 13:37:32;;;;;;;9.65;7.70;;;;;;;;;;4932864;29;20035;-67
2021/07/06 13:39:58;;;;;;;11.02;9.85;;;;;;;;;;4932828;29;20039;-67
2021/07/06 13:42:24;;;;;;;10.90;7.88;;;;;;;;;;4958333;28;20030;-67
2021/07/06 13:44:50;;;;;;;11.57;9.98;;;;;;;;;;4992654;28;20092;-67
2021/07/06 13:47:16;;;;;;;13.30;8.43;;;;;;;;;;4992741;28;20034;-67
2021/07/06 13:49:42;;;;;;;10.63;9.52;;;;;;;;;;4992733;28;20034;-66
2021/07/06 13:52:08;;;;;;;9.82;8.70;;;;;;;;;;4992838;28;20739;-67
2021/07/06 13:54:36;;;;;;;16.70;9.80;;;;;;;;;;4993232;28;20110;-67
2021/07/06 13:57:06;;;;;;;13.77;8.20;;;;;;;;;;4992616;28;20023;-66
2021/07/06 13:59:32;;;;;;;13.52;8.27;;;;;;;;;;4992859;28;20138;-67
2021/07/06 14:01:58;;;;;;;13.70;9.38;;;;;;;;;;4992734;28;20505;-67
2021/07/06 14:04:24;;;;;;;12.70;8.90;;;;;;;;;;4992725;28;20034;-68
2021/07/06 14:06:50;;;;;;;10.43;7.90;;;;;;;;;;4992339;28;20018;-66
2021/07/06 14:09:17;;;;;;;17.13;9.13;;;;;;;;;;4992443;28;20033;-67